Terminal Aerodrome Forecast
Issued by NWS

Current Version | Previous Version | Graphics & Text | Print | Product List | Glossary On
Versions: 1 2 3 4 5 6 7 8 9 10 11 12 13 14 15 16 17 18 19 20 21 22 23 24 25 26 27 28 29 30 31 32 33 34 35 36 37 38
000
FTUS41 KRNK 231737
TAFLWB
TAF
KLWB 231737Z 2318/2418 36003KT P6SM VCTS BKN050CB
     FM232300 30004KT P6SM SCT045 BKN250
     FM240500 27003KT 5SM BR VCSH BKN040
     FM241300 31003KT 6SM BR OVC050
     FM241600 29003KT P6SM OVC045=

USA.gov is the U.S. government's official web portal to all federal, state and local government web resources and services.